createdAt,value
2017-07-20T00:00:25.680Z,22.70
2017-07-20T00:02:53.246Z,22.70
2017-07-20T00:05:20.770Z,22.60
2017-07-20T00:07:49.097Z,22.40
2017-07-20T00:10:16.627Z,22.30
2017-07-20T00:12:44.942Z,22.20
2017-07-20T00:15:12.474Z,22.20
2017-07-20T00:17:40.031Z,22.00
2017-07-20T00:20:07.570Z,22.00
2017-07-20T00:22:35.892Z,21.90
2017-07-20T00:25:03.416Z,21.90
2017-07-20T00:27:30.996Z,22.00
2017-07-20T00:29:58.519Z,21.90
2017-07-20T00:32:26.083Z,21.80
2017-07-20T00:34:53.614Z,21.80
2017-07-20T00:37:21.187Z,21.80
2017-07-20T00:39:48.713Z,21.80
2017-07-20T00:42:16.234Z,21.80
2017-07-20T00:44:46.170Z,22.00
2017-07-20T00:47:13.695Z,22.00
2017-07-20T00:49:41.247Z,22.10
2017-07-20T00:52:08.765Z,21.90
2017-07-20T00:54:36.326Z,21.80
2017-07-20T00:57:03.851Z,21.60
2017-07-20T00:59:32.170Z,21.50
2017-07-20T01:01:59.699Z,21.50
2017-07-20T01:04:27.251Z,21.50
2017-07-20T01:06:55.539Z,21.40
2017-07-20T01:09:23.099Z,21.40
2017-07-20T01:11:50.635Z,21.40
2017-07-20T01:14:18.955Z,21.40
2017-07-20T01:16:46.485Z,21.40
2017-07-20T01:19:14.038Z,21.30
2017-07-20T01:21:42.337Z,21.30
2017-07-20T01:24:09.890Z,21.30
2017-07-20T01:26:37.420Z,21.20
2017-07-20T01:29:05.739Z,20.90
2017-07-20T01:31:33.273Z,20.90
2017-07-20T01:34:01.591Z,21.30
2017-07-20T01:36:29.121Z,21.20
2017-07-20T01:38:56.670Z,21.40
2017-07-20T01:41:24.198Z,21.40
2017-07-20T01:43:51.750Z,21.60
2017-07-20T01:46:19.302Z,21.70
2017-07-20T01:48:46.836Z,21.70
2017-07-20T01:51:14.391Z,21.80
2017-07-20T01:53:41.919Z,21.90
2017-07-20T01:56:10.246Z,22.20
2017-07-20T01:58:37.785Z,22.20
2017-07-20T02:01:05.329Z,22.20
2017-07-20T02:03:32.864Z,22.10
2017-07-20T02:06:00.414Z,22.00
2017-07-20T02:08:27.942Z,21.80
2017-07-20T02:10:55.499Z,21.70
2017-07-20T02:13:23.033Z,21.60
2017-07-20T02:15:50.589Z,21.60
2017-07-20T02:18:18.124Z,21.50
2017-07-20T02:20:46.448Z,21.40
2017-07-20T02:23:13.967Z,21.40
2017-07-20T02:25:42.290Z,21.40
2017-07-20T02:28:09.819Z,21.40
2017-07-20T02:30:37.371Z,21.30
2017-07-20T02:33:05.662Z,21.30
2017-07-20T02:35:33.206Z,21.30
2017-07-20T02:38:01.507Z,21.20
2017-07-20T02:40:29.063Z,21.20
2017-07-20T02:42:56.587Z,21.10
2017-07-20T02:45:24.873Z,21.10
2017-07-20T02:47:53.196Z,21.10
2017-07-20T02:50:20.741Z,21.10
2017-07-20T02:52:48.301Z,21.00
2017-07-20T02:55:15.835Z,20.90
2017-07-20T02:57:44.155Z,20.80
2017-07-20T03:00:11.683Z,20.80
2017-07-20T03:02:39.230Z,20.80
2017-07-20T03:05:07.522Z,20.60
2017-07-20T03:07:35.067Z,20.60
2017-07-20T03:10:03.358Z,20.50
2017-07-20T03:12:30.907Z,20.50
2017-07-20T03:14:59.204Z,20.60
2017-07-20T03:17:26.780Z,20.60
2017-07-20T03:19:54.301Z,20.60
2017-07-20T03:22:33.851Z,20.70
2017-07-20T03:25:02.146Z,20.70
2017-07-20T03:27:29.701Z,20.70
2017-07-20T03:29:57.226Z,20.70
2017-07-20T03:32:24.789Z,20.70
2017-07-20T03:34:53.087Z,20.70
2017-07-20T03:37:20.639Z,20.70
2017-07-20T03:39:48.934Z,20.70
2017-07-20T03:42:16.488Z,20.70
2017-07-20T03:44:44.015Z,20.70
2017-07-20T03:47:11.559Z,20.70
2017-07-20T03:49:39.088Z,20.70
2017-07-20T03:52:06.650Z,20.60
2017-07-20T03:54:34.174Z,20.60
2017-07-20T03:57:02.462Z,20.50
2017-07-20T03:59:30.007Z,20.50
2017-07-20T04:01:58.297Z,20.50
2017-07-20T04:04:25.842Z,20.50
2017-07-20T04:06:54.129Z,20.50
2017-07-20T04:09:21.686Z,20.50
2017-07-20T04:11:49.223Z,20.50
2017-07-20T04:14:16.773Z,20.50
2017-07-20T04:16:44.904Z,20.60
2017-07-20T04:19:12.699Z,20.60
2017-07-20T04:21:40.224Z,20.60
2017-07-20T04:24:07.777Z,20.60
2017-07-20T04:26:35.297Z,20.60
2017-07-20T04:29:02.842Z,20.60
2017-07-20T04:31:30.370Z,20.50
2017-07-20T04:33:57.922Z,20.50
2017-07-20T04:36:25.446Z,20.50
2017-07-20T04:38:53.763Z,20.40
2017-07-20T04:41:21.286Z,20.40
2017-07-20T04:43:49.603Z,20.50
2017-07-20T04:46:17.135Z,20.50
2017-07-20T04:48:44.681Z,20.50
2017-07-20T04:51:12.211Z,20.50
2017-07-20T04:53:39.763Z,20.40
2017-07-20T04:56:07.279Z,20.50
2017-07-20T04:58:34.809Z,20.40
2017-07-20T05:01:03.126Z,20.40
2017-07-20T05:03:30.654Z,20.40
2017-07-20T05:05:58.969Z,20.30
2017-07-20T05:08:26.491Z,20.30
2017-07-20T05:10:54.809Z,20.30
2017-07-20T05:13:22.338Z,20.30
2017-07-20T05:15:49.890Z,20.20
2017-07-20T05:18:18.182Z,20.10
2017-07-20T05:20:45.727Z,20.10
2017-07-20T05:23:14.019Z,20.10
2017-07-20T05:25:41.566Z,20.10
2017-07-20T05:28:09.855Z,20.10
2017-07-20T05:30:37.402Z,20.10
2017-07-20T05:33:05.693Z,20.20
2017-07-20T05:35:33.242Z,20.20
2017-07-20T05:38:01.531Z,20.40
2017-07-20T05:40:29.074Z,20.30
2017-07-20T05:42:57.367Z,20.10
2017-07-20T05:45:24.914Z,20.10
2017-07-20T05:47:53.201Z,20.00
2017-07-20T05:50:20.750Z,20.00
2017-07-20T05:52:49.036Z,19.80
2017-07-20T05:55:16.586Z,19.80
2017-07-20T05:57:44.114Z,19.50
2017-07-20T06:00:11.659Z,19.50
2017-07-20T06:02:39.207Z,19.50
2017-07-20T06:05:06.730Z,19.40
2017-07-20T06:07:34.274Z,19.20
2017-07-20T06:10:01.806Z,19.10
2017-07-20T06:12:29.354Z,19.00
2017-07-20T06:14:56.870Z,19.00
2017-07-20T06:17:24.419Z,19.00
2017-07-20T06:19:51.939Z,19.00
2017-07-20T06:22:19.481Z,18.90
2017-07-20T06:24:47.002Z,18.70
2017-07-20T06:27:14.546Z,18.40
2017-07-20T06:29:42.838Z,18.30
2017-07-20T06:32:10.386Z,18.30
2017-07-20T06:34:38.683Z,18.10
2017-07-20T06:37:06.233Z,18.10
2017-07-20T06:39:33.762Z,18.10
2017-07-20T06:42:01.310Z,18.00
2017-07-20T06:44:28.827Z,17.90
2017-07-20T06:46:56.394Z,17.90
2017-07-20T06:49:23.934Z,17.90
2017-07-20T06:51:51.482Z,17.80
2017-07-20T06:54:19.006Z,17.80
2017-07-20T06:56:46.559Z,17.80
2017-07-20T06:59:14.078Z,17.70
2017-07-20T07:01:41.639Z,17.80
2017-07-20T07:04:09.164Z,17.80
2017-07-20T07:06:36.687Z,17.90
2017-07-20T07:09:04.234Z,17.90
2017-07-20T07:11:31.758Z,17.90
2017-07-20T07:14:00.075Z,17.80
2017-07-20T07:16:27.602Z,17.80
2017-07-20T07:18:55.914Z,17.80
2017-07-20T07:21:23.447Z,17.80
2017-07-20T07:23:50.991Z,17.90
2017-07-20T07:26:19.282Z,18.00
2017-07-20T07:28:46.830Z,17.90
2017-07-20T07:31:15.128Z,18.00
2017-07-20T07:33:42.678Z,18.00
2017-07-20T07:36:10.208Z,18.00
2017-07-20T07:38:37.754Z,18.10
2017-07-20T07:41:05.286Z,18.10
2017-07-20T07:43:32.833Z,18.10
2017-07-20T07:46:00.355Z,18.10
2017-07-20T07:48:28.671Z,18.30
2017-07-20T07:50:56.198Z,18.30
2017-07-20T07:53:24.511Z,18.70
2017-07-20T07:55:52.042Z,18.70
2017-07-20T07:58:20.365Z,18.70
2017-07-20T08:00:47.888Z,18.70
2017-07-20T08:03:15.450Z,18.80
2017-07-20T08:05:42.989Z,18.80
2017-07-20T08:08:11.287Z,18.80
2017-07-20T08:10:38.855Z,18.80
2017-07-20T08:13:06.377Z,18.80
2017-07-20T08:15:34.691Z,18.60
2017-07-20T08:18:02.218Z,18.60
2017-07-20T08:20:30.532Z,18.70
2017-07-20T08:22:58.066Z,18.70
2017-07-20T08:25:26.382Z,18.60
2017-07-20T08:27:53.918Z,18.60
2017-07-20T08:30:21.475Z,18.60
2017-07-20T08:32:49.002Z,18.60
2017-07-20T08:35:16.546Z,18.70
2017-07-20T08:37:44.070Z,19.00
2017-07-20T08:40:11.619Z,19.10
2017-07-20T08:42:39.151Z,19.20
2017-07-20T08:45:07.472Z,19.40
2017-07-20T08:47:34.991Z,19.40
2017-07-20T08:50:02.542Z,19.50
2017-07-20T08:52:30.835Z,19.80
2017-07-20T08:54:59.146Z,20.00
2017-07-20T08:57:26.665Z,20.00
2017-07-20T08:59:54.982Z,20.20
2017-07-20T09:02:22.507Z,20.20
2017-07-20T09:04:50.074Z,20.20
2017-07-20T09:07:17.598Z,20.00
2017-07-20T09:09:45.129Z,20.10
2017-07-20T09:12:12.695Z,20.10
2017-07-20T09:14:40.218Z,20.00
2017-07-20T09:17:07.765Z,20.10
2017-07-20T09:19:36.053Z,20.10
2017-07-20T09:22:03.602Z,20.10
2017-07-20T09:24:31.886Z,20.40
2017-07-20T09:26:59.443Z,20.40
2017-07-20T09:29:26.968Z,20.60
2017-07-20T09:31:54.514Z,20.60
2017-07-20T09:34:22.048Z,21.10
2017-07-20T09:36:49.608Z,21.50
2017-07-20T09:39:17.126Z,21.50
2017-07-20T09:41:45.446Z,21.80
2017-07-20T09:44:12.971Z,21.80
2017-07-20T09:46:41.285Z,22.20
2017-07-20T09:49:08.810Z,22.10
2017-07-20T09:51:36.366Z,22.20
2017-07-20T09:54:04.664Z,21.50
2017-07-20T09:56:32.221Z,21.50
2017-07-20T09:58:59.754Z,21.20
2017-07-20T10:01:28.070Z,20.50
2017-07-20T10:03:55.595Z,20.40
2017-07-20T10:06:23.915Z,21.20
2017-07-20T10:08:51.439Z,21.20
2017-07-20T10:11:19.729Z,21.90
2017-07-20T10:13:47.285Z,21.90
2017-07-20T10:16:14.810Z,22.50
2017-07-20T10:18:42.349Z,22.80
2017-07-20T10:21:09.870Z,22.90
2017-07-20T10:23:37.419Z,22.90
2017-07-20T10:26:04.955Z,23.40
2017-07-20T10:28:33.271Z,23.30
2017-07-20T10:31:00.794Z,23.30
2017-07-20T10:33:29.106Z,23.20
2017-07-20T10:35:56.627Z,23.10
2017-07-20T10:38:24.170Z,22.90
2017-07-20T10:40:51.686Z,22.50
2017-07-20T10:43:19.242Z,22.40
2017-07-20T10:45:46.763Z,22.40
2017-07-20T10:48:14.314Z,22.40
2017-07-20T10:50:41.845Z,22.60
2017-07-20T10:53:09.392Z,22.70
2017-07-20T10:55:36.915Z,23.10
2017-07-20T10:58:05.224Z,23.60
2017-07-20T11:00:32.750Z,23.60
2017-07-20T11:03:01.061Z,23.90
2017-07-20T11:05:28.589Z,23.90
2017-07-20T11:07:56.927Z,24.40
2017-07-20T11:10:24.454Z,24.30
2017-07-20T11:12:51.978Z,24.00
2017-07-20T11:15:20.289Z,23.20
2017-07-20T11:17:47.814Z,23.20
2017-07-20T11:20:16.126Z,22.40
2017-07-20T11:22:43.654Z,22.40
2017-07-20T11:25:11.968Z,22.60
2017-07-20T11:27:39.487Z,22.60
2017-07-20T11:30:07.804Z,24.00
2017-07-20T11:32:35.330Z,24.00
2017-07-20T11:35:03.646Z,23.40
2017-07-20T11:37:31.169Z,23.40
2017-07-20T11:39:59.486Z,23.00
2017-07-20T11:42:27.022Z,23.00
2017-07-20T11:44:54.575Z,22.80
2017-07-20T11:47:22.098Z,22.90
2017-07-20T11:49:49.654Z,22.70
2017-07-20T11:52:17.171Z,22.70
2017-07-20T11:54:44.720Z,22.80
2017-07-20T11:57:12.246Z,22.90
2017-07-20T11:59:40.567Z,23.20
2017-07-20T12:02:08.095Z,23.20
2017-07-20T12:04:36.413Z,24.10
2017-07-20T12:07:03.954Z,24.10
2017-07-20T12:09:31.501Z,24.70
2017-07-20T12:11:59.026Z,24.70
2017-07-20T12:14:26.587Z,24.80
2017-07-20T12:16:54.110Z,24.60
2017-07-20T12:19:21.634Z,24.60
2017-07-20T12:21:49.950Z,25.00
2017-07-20T12:24:17.479Z,25.00
2017-07-20T12:26:45.022Z,24.90
2017-07-20T12:29:13.313Z,24.80
2017-07-20T12:31:40.868Z,24.80
2017-07-20T12:34:09.159Z,24.40
2017-07-20T12:36:36.706Z,24.40
2017-07-20T12:39:04.252Z,24.40
2017-07-20T12:41:32.577Z,23.90
2017-07-20T12:44:00.110Z,23.90
2017-07-20T12:46:27.659Z,23.20
2017-07-20T12:48:55.941Z,23.40
2017-07-20T12:51:24.263Z,24.00
2017-07-20T12:53:51.786Z,24.00
2017-07-20T12:56:19.339Z,24.20
2017-07-20T12:58:46.865Z,24.30
2017-07-20T13:01:14.409Z,24.30
2017-07-20T13:03:41.934Z,24.90
2017-07-20T13:06:09.487Z,24.60
2017-07-20T13:08:37.034Z,25.10
2017-07-20T13:11:04.584Z,24.90
2017-07-20T13:13:32.111Z,24.70
2017-07-20T13:15:59.630Z,25.20
2017-07-20T13:18:27.175Z,24.80
2017-07-20T13:20:54.699Z,25.00
2017-07-20T13:23:22.247Z,25.10
2017-07-20T13:25:49.775Z,24.80
2017-07-20T13:28:17.321Z,25.10
2017-07-20T13:30:44.915Z,25.30
2017-07-20T13:33:12.463Z,25.60
2017-07-20T13:35:39.995Z,25.50
2017-07-20T13:38:07.542Z,25.20
2017-07-20T13:40:35.840Z,24.90
2017-07-20T13:43:03.391Z,24.80
2017-07-20T13:45:30.918Z,24.90
2017-07-20T13:47:58.477Z,25.00
2017-07-20T13:50:25.995Z,24.50
2017-07-20T13:52:53.543Z,24.40
2017-07-20T13:55:21.067Z,24.60
2017-07-20T13:57:49.389Z,25.10
2017-07-20T14:00:16.910Z,25.00
2017-07-20T14:02:45.218Z,25.30
2017-07-20T14:05:12.735Z,25.20
2017-07-20T14:07:40.279Z,25.10
2017-07-20T14:10:07.798Z,25.30
2017-07-20T14:12:35.343Z,25.10
2017-07-20T14:15:02.879Z,24.80
2017-07-20T14:17:31.170Z,24.80
2017-07-20T14:19:59.479Z,24.80
2017-07-20T14:22:26.999Z,24.70
2017-07-20T14:24:55.314Z,24.60
2017-07-20T14:27:22.831Z,24.60
2017-07-20T14:29:51.142Z,25.10
2017-07-20T14:32:18.674Z,25.10
2017-07-20T14:34:46.225Z,25.00
2017-07-20T14:37:14.521Z,25.60
2017-07-20T14:39:42.070Z,25.60
2017-07-20T14:42:10.359Z,25.40
2017-07-20T14:44:37.907Z,25.40
2017-07-20T14:47:06.194Z,25.20
2017-07-20T14:49:33.757Z,25.20
2017-07-20T14:52:01.281Z,24.90
2017-07-20T14:54:28.823Z,24.70
2017-07-20T14:56:56.337Z,24.50
2017-07-20T14:59:23.894Z,24.40
2017-07-20T15:01:51.422Z,24.50
2017-07-20T15:04:18.980Z,24.60
2017-07-20T15:06:46.502Z,24.50
2017-07-20T15:09:14.041Z,24.40
2017-07-20T15:11:41.561Z,24.80
2017-07-20T15:14:09.107Z,24.90
2017-07-20T15:16:36.658Z,24.80
2017-07-20T15:19:04.222Z,24.80
2017-07-20T15:21:31.748Z,24.90
2017-07-20T15:23:59.275Z,25.40
2017-07-20T15:26:26.829Z,25.40
2017-07-20T15:28:55.118Z,25.40
2017-07-20T15:31:22.671Z,25.40
2017-07-20T15:33:50.961Z,25.10
2017-07-20T15:36:18.511Z,25.00
2017-07-20T15:38:46.797Z,24.80
2017-07-20T15:41:14.355Z,24.70
2017-07-20T15:43:41.878Z,24.70
2017-07-20T15:46:09.421Z,24.80
2017-07-20T15:48:36.946Z,25.10
2017-07-20T15:51:04.490Z,24.70
2017-07-20T15:53:32.014Z,24.50
2017-07-20T15:55:59.563Z,24.40
2017-07-20T15:58:27.099Z,24.70
2017-07-20T16:00:54.641Z,24.60
2017-07-20T16:03:27.926Z,24.70
2017-07-20T16:05:55.474Z,24.60
2017-07-20T16:08:23.765Z,24.40
2017-07-20T16:10:51.310Z,24.40
2017-07-20T16:13:19.602Z,24.30
2017-07-20T16:15:47.146Z,24.30
2017-07-20T16:18:15.437Z,24.50
2017-07-20T16:20:43.013Z,24.50
2017-07-20T16:23:10.530Z,24.70
2017-07-20T16:25:38.054Z,24.70
2017-07-20T16:28:05.603Z,24.80
2017-07-20T16:30:33.126Z,24.50
2017-07-20T16:33:00.679Z,24.70
2017-07-20T16:35:28.974Z,25.50
2017-07-20T16:37:56.528Z,25.40
2017-07-20T16:40:24.063Z,25.70
2017-07-20T16:42:52.385Z,25.30
2017-07-20T16:45:19.923Z,25.30
2017-07-20T16:47:47.470Z,25.30
2017-07-20T16:50:15.763Z,26.70
2017-07-20T16:52:43.322Z,26.60
2017-07-20T16:55:10.855Z,27.30
2017-07-20T16:57:39.171Z,26.40
2017-07-20T17:00:06.705Z,26.40
2017-07-20T17:02:35.015Z,26.50
2017-07-20T17:05:02.539Z,26.50
2017-07-20T17:07:30.849Z,26.30
2017-07-20T17:09:58.371Z,26.30
2017-07-20T17:12:26.692Z,26.20
2017-07-20T17:14:54.231Z,26.20
2017-07-20T17:17:21.783Z,25.30
2017-07-20T17:19:49.320Z,25.10
2017-07-20T17:22:17.637Z,24.20
2017-07-20T17:24:45.159Z,24.20
2017-07-20T17:27:13.499Z,24.40
2017-07-20T17:29:41.026Z,24.40
2017-07-20T17:32:08.550Z,24.60
2017-07-20T17:34:36.098Z,24.90
2017-07-20T17:37:03.622Z,24.90
2017-07-20T17:39:31.172Z,25.20
2017-07-20T17:41:58.702Z,25.40
2017-07-20T17:44:27.027Z,25.20
2017-07-20T17:46:54.555Z,25.10
2017-07-20T17:49:22.114Z,24.70
2017-07-20T17:51:49.634Z,24.20
2017-07-20T17:54:17.178Z,24.10
2017-07-20T17:56:44.707Z,24.40
2017-07-20T17:59:12.253Z,24.20
2017-07-20T18:01:39.782Z,24.00
2017-07-20T18:04:07.359Z,23.70
2017-07-20T18:06:35.646Z,23.60
2017-07-20T18:09:03.207Z,23.60
2017-07-20T18:11:30.747Z,23.60
2017-07-20T18:13:59.075Z,23.60
2017-07-20T18:16:26.611Z,23.60
2017-07-20T18:18:54.171Z,23.40
2017-07-20T18:21:21.704Z,23.40
2017-07-20T18:23:50.025Z,23.30
2017-07-20T18:26:17.561Z,23.30
2017-07-20T18:28:45.121Z,23.20
2017-07-20T18:31:12.651Z,23.10
2017-07-20T18:33:40.991Z,22.70
2017-07-20T18:36:08.522Z,22.70
2017-07-20T18:38:36.086Z,22.70
2017-07-20T18:41:03.624Z,22.50
2017-07-20T18:43:31.970Z,22.30
2017-07-20T18:45:59.939Z,22.40
2017-07-20T18:48:27.527Z,22.20
2017-07-20T18:50:55.083Z,22.10
2017-07-20T18:53:23.377Z,21.90
2017-07-20T18:55:50.918Z,21.80
2017-07-20T18:58:18.439Z,21.80
2017-07-20T19:00:45.991Z,21.70
2017-07-20T19:03:13.519Z,21.60
2017-07-20T19:05:41.063Z,21.50
2017-07-20T19:08:09.350Z,21.40
2017-07-20T19:10:36.903Z,21.30
2017-07-20T19:13:05.191Z,21.20
2017-07-20T19:15:32.739Z,21.20
2017-07-20T19:18:01.027Z,21.00
2017-07-20T19:20:28.577Z,21.00
2017-07-20T19:22:56.870Z,20.80
2017-07-20T19:25:24.414Z,20.80
2017-07-20T19:27:52.698Z,20.70
2017-07-20T19:30:20.243Z,20.70
2017-07-20T19:32:48.535Z,20.60
2017-07-20T19:35:16.081Z,20.60
2017-07-20T19:37:44.378Z,20.30
2017-07-20T19:40:11.931Z,20.30
2017-07-20T19:42:39.494Z,20.20
2017-07-20T19:45:07.054Z,20.10
2017-07-20T19:47:34.591Z,20.10
2017-07-20T19:50:02.911Z,19.60
2017-07-20T19:52:30.438Z,19.60
2017-07-20T19:54:58.762Z,19.30
2017-07-20T19:57:26.287Z,19.30
2017-07-20T19:59:53.846Z,19.20
2017-07-20T20:02:21.725Z,19.10
2017-07-20T20:04:50.112Z,18.90
2017-07-20T20:07:18.705Z,18.90
2017-07-20T20:09:47.082Z,18.60
2017-07-20T20:12:14.610Z,18.60
2017-07-20T20:14:42.150Z,18.60
2017-07-20T20:17:10.446Z,18.40
2017-07-20T20:19:38.014Z,18.30
2017-07-20T20:22:05.547Z,18.20
2017-07-20T20:24:33.851Z,18.10
2017-07-20T20:27:01.438Z,18.10
2017-07-20T20:29:28.958Z,18.10
2017-07-20T20:31:57.275Z,18.00
2017-07-20T20:34:24.812Z,18.00
2017-07-20T20:36:52.358Z,18.00
2017-07-20T20:39:20.634Z,18.00
2017-07-20T20:41:48.291Z,17.90
2017-07-20T20:44:15.836Z,17.90
2017-07-20T20:46:44.161Z,17.80
2017-07-20T20:49:11.695Z,17.80
2017-07-20T20:51:40.006Z,17.70
2017-07-20T20:54:07.530Z,17.70
2017-07-20T20:56:35.848Z,17.50
2017-07-20T20:59:03.370Z,17.50
2017-07-20T21:01:30.902Z,17.60
2017-07-20T21:03:58.457Z,17.50
2017-07-20T21:06:25.974Z,17.50
2017-07-20T21:08:53.519Z,17.50
2017-07-20T21:11:21.043Z,17.50
2017-07-20T21:13:48.607Z,17.50
2017-07-20T21:16:16.900Z,17.40
2017-07-20T21:18:45.213Z,17.40
2017-07-20T21:21:12.743Z,17.40
2017-07-20T21:23:40.291Z,17.30
2017-07-20T21:26:08.583Z,17.40
2017-07-20T21:28:36.126Z,17.30
2017-07-20T21:31:04.421Z,17.10
2017-07-20T21:33:31.972Z,17.10
2017-07-20T21:35:59.490Z,17.20
2017-07-20T21:38:27.033Z,17.10
2017-07-20T21:40:54.553Z,17.10
2017-07-20T21:43:22.099Z,17.10
2017-07-20T21:45:50.385Z,17.20
2017-07-20T21:48:17.939Z,17.20
2017-07-20T21:50:45.488Z,17.20
2017-07-20T21:53:13.808Z,17.10
2017-07-20T21:55:41.331Z,17.10
2017-07-20T21:58:09.663Z,17.10
2017-07-20T22:00:37.190Z,17.10
2017-07-20T22:03:04.715Z,17.00
2017-07-20T22:05:32.258Z,17.10
2017-07-20T22:07:59.787Z,17.10
2017-07-20T22:10:27.335Z,17.30
2017-07-20T22:12:54.868Z,17.40
2017-07-20T22:15:23.186Z,17.40
2017-07-20T22:17:50.715Z,17.40
2017-07-20T22:20:18.471Z,17.50
2017-07-20T22:22:46.767Z,17.60
2017-07-20T22:25:14.322Z,17.60
2017-07-20T22:27:41.851Z,17.50
2017-07-20T22:51:14.421Z,16.90
2017-07-20T22:53:41.942Z,16.90
2017-07-20T22:56:10.256Z,16.90
2017-07-20T22:58:37.775Z,16.90
2017-07-20T23:01:06.088Z,16.80
2017-07-20T23:03:33.611Z,16.80
2017-07-20T23:06:01.914Z,16.80
2017-07-20T23:08:29.449Z,16.80
2017-07-20T23:10:57.757Z,17.00
2017-07-20T23:13:25.273Z,17.00
2017-07-20T23:15:52.819Z,17.00
2017-07-20T23:18:20.338Z,17.00
2017-07-20T23:20:47.890Z,17.00
2017-07-20T23:23:15.411Z,16.90
2017-07-20T23:25:42.934Z,16.90
2017-07-20T23:28:10.474Z,16.80
2017-07-20T23:30:37.996Z,16.80
2017-07-20T23:33:06.312Z,16.80
2017-07-20T23:35:33.833Z,16.70
2017-07-20T23:38:02.149Z,16.50
2017-07-20T23:40:29.666Z,16.50
2017-07-20T23:42:57.207Z,16.40
2017-07-20T23:45:24.732Z,16.40
2017-07-20T23:47:52.269Z,16.50
2017-07-20T23:50:19.794Z,16.40
2017-07-20T23:52:47.330Z,16.30
2017-07-20T23:55:14.846Z,16.30
2017-07-20T23:57:42.402Z,16.40
